Terminal Aerodrome Forecast
Issued by NWS

Home | Current Version | Previous Version | Text Only | Print | Product List | Glossary On
Versions: 1 2 3 4 5 6 7 8 9 10 11 12 13
194
FTUS45 KVEF 260533
TAFVGT
TAF
KVGT 260533Z 2606/2706 33006KT P6SM BKN180
     FM260800 VRB05KT P6SM BKN120 OVC200
     FM261800 VRB05KT P6SM FEW120 BKN200
     FM270200 18007KT P6SM FEW200=

USA.gov is the U.S. government's official web portal to all federal, state and local government web resources and services.